sensor_id;sensor_type;location;lat;lon;timestamp;P1;durP1;ratioP1;P2;durP2;ratioP2
4428;SDS011;2227;47.810;8.810;2022-09-09T03:49:53;2.97;;;1.33;;
4428;SDS011;2227;47.810;8.810;2022-09-09T03:52:20;3.25;;;1.50;;
4428;SDS011;2227;47.810;8.810;2022-09-09T03:54:50;3.95;;;1.48;;
4428;SDS011;2227;47.810;8.810;2022-09-09T03:57:18;6.03;;;1.73;;
4428;SDS011;2227;47.810;8.810;2022-09-09T04:02:10;6.25;;;1.92;;
4428;SDS011;2227;47.810;8.810;2022-09-09T04:04:37;5.43;;;1.75;;
4428;SDS011;2227;47.810;8.810;2022-09-09T04:07:04;3.50;;;1.83;;
4428;SDS011;2227;47.810;8.810;2022-09-09T04:09:33;6.53;;;1.80;;
4428;SDS011;2227;47.810;8.810;2022-09-09T04:12:00;3.17;;;1.20;;
4428;SDS011;2227;47.810;8.810;2022-09-09T04:14:26;3.70;;;1.50;;
4428;SDS011;2227;47.810;8.810;2022-09-09T04:16:54;4.45;;;1.73;;
4428;SDS011;2227;47.810;8.810;2022-09-09T04:19:23;3.67;;;1.40;;
4428;SDS011;2227;47.810;8.810;2022-09-09T04:21:50;5.03;;;1.35;;
4428;SDS011;2227;47.810;8.810;2022-09-09T04:24:17;3.10;;;1.30;;
4428;SDS011;2227;47.810;8.810;2022-09-09T04:26:45;4.82;;;1.70;;
4428;SDS011;2227;47.810;8.810;2022-09-09T04:29:12;2.55;;;1.40;;
4428;SDS011;2227;47.810;8.810;2022-09-09T04:31:39;5.78;;;1.73;;
4428;SDS011;2227;47.810;8.810;2022-09-09T04:34:08;4.80;;;1.77;;
4428;SDS011;2227;47.810;8.810;2022-09-09T04:36:35;7.28;;;1.63;;
4428;SDS011;2227;47.810;8.810;2022-09-09T04:39:02;4.13;;;1.67;;
4428;SDS011;2227;47.810;8.810;2022-09-09T04:41:29;5.03;;;2.47;;
4428;SDS011;2227;47.810;8.810;2022-09-09T04:43:57;3.70;;;1.88;;
4428;SDS011;2227;47.810;8.810;2022-09-09T04:46:25;4.85;;;1.67;;
4428;SDS011;2227;47.810;8.810;2022-09-09T04:48:52;5.43;;;1.88;;
4428;SDS011;2227;47.810;8.810;2022-09-09T04:51:19;3.58;;;1.60;;
4428;SDS011;2227;47.810;8.810;2022-09-09T04:53:46;4.40;;;1.85;;
4428;SDS011;2227;47.810;8.810;2022-09-09T04:56:15;3.78;;;1.92;;
4428;SDS011;2227;47.810;8.810;2022-09-09T04:58:43;3.08;;;1.48;;
4428;SDS011;2227;47.810;8.810;2022-09-09T05:01:17;5.65;;;1.75;;
4428;SDS011;2227;47.810;8.810;2022-09-09T05:03:46;3.83;;;1.73;;
4428;SDS011;2227;47.810;8.810;2022-09-09T05:06:14;4.22;;;1.60;;
4428;SDS011;2227;47.810;8.810;2022-09-09T05:08:43;3.47;;;1.52;;
4428;SDS011;2227;47.810;8.810;2022-09-09T05:11:18;5.22;;;1.88;;
4428;SDS011;2227;47.810;8.810;2022-09-09T05:13:46;5.35;;;1.95;;
4428;SDS011;2227;47.810;8.810;2022-09-09T05:16:13;4.38;;;1.70;;
4428;SDS011;2227;47.810;8.810;2022-09-09T05:18:41;4.78;;;1.80;;
4428;SDS011;2227;47.810;8.810;2022-09-09T05:21:09;4.60;;;1.98;;
4428;SDS011;2227;47.810;8.810;2022-09-09T05:23:36;6.10;;;2.05;;
4428;SDS011;2227;47.810;8.810;2022-09-09T05:26:03;5.93;;;1.80;;
4428;SDS011;2227;47.810;8.810;2022-09-09T05:28:31;3.63;;;1.95;;
4428;SDS011;2227;47.810;8.810;2022-09-09T05:31:00;6.88;;;1.98;;
4428;SDS011;2227;47.810;8.810;2022-09-09T05:33:31;85.40;;;14.57;;
4428;SDS011;2227;47.810;8.810;2022-09-09T05:35:59;13.63;;;3.60;;
4428;SDS011;2227;47.810;8.810;2022-09-09T05:38:31;117.88;;;21.00;;
4428;SDS011;2227;47.810;8.810;2022-09-09T05:40:59;141.10;;;22.70;;
4428;SDS011;2227;47.810;8.810;2022-09-09T05:43:26;43.45;;;9.88;;
4428;SDS011;2227;47.810;8.810;2022-09-09T05:48:34;13.23;;;2.67;;
4428;SDS011;2227;47.810;8.810;2022-09-09T05:51:04;8.40;;;2.70;;
4428;SDS011;2227;47.810;8.810;2022-09-09T05:53:33;3.83;;;2.00;;
4428;SDS011;2227;47.810;8.810;2022-09-09T05:56:04;5.80;;;2.10;;
4428;SDS011;2227;47.810;8.810;2022-09-09T05:58:37;4.75;;;2.22;;
4428;SDS011;2227;47.810;8.810;2022-09-09T06:01:05;2.72;;;1.50;;
4428;SDS011;2227;47.810;8.810;2022-09-09T06:03:43;3.70;;;1.90;;
4428;SDS011;2227;47.810;8.810;2022-09-09T06:06:12;5.03;;;1.60;;
4428;SDS011;2227;47.810;8.810;2022-09-09T06:08:44;4.85;;;1.58;;
4428;SDS011;2227;47.810;8.810;2022-09-09T06:11:12;5.22;;;1.58;;
4428;SDS011;2227;47.810;8.810;2022-09-09T06:13:58;3.58;;;1.40;;
4428;SDS011;2227;47.810;8.810;2022-09-09T06:16:26;4.72;;;1.88;;
4428;SDS011;2227;47.810;8.810;2022-09-09T06:18:54;3.22;;;1.60;;
4428;SDS011;2227;47.810;8.810;2022-09-09T06:21:23;3.35;;;1.45;;
4428;SDS011;2227;47.810;8.810;2022-09-09T06:23:52;4.45;;;1.70;;
4428;SDS011;2227;47.810;8.810;2022-09-09T06:26:35;5.82;;;1.75;;
4428;SDS011;2227;47.810;8.810;2022-09-09T06:29:03;5.95;;;1.90;;
4428;SDS011;2227;47.810;8.810;2022-09-09T06:31:32;5.07;;;1.65;;
4428;SDS011;2227;47.810;8.810;2022-09-09T06:34:06;4.28;;;1.55;;
4428;SDS011;2227;47.810;8.810;2022-09-09T06:36:35;5.15;;;1.75;;
4428;SDS011;2227;47.810;8.810;2022-09-09T06:39:04;3.92;;;1.40;;
4428;SDS011;2227;47.810;8.810;2022-09-09T06:41:37;3.60;;;1.38;;
4428;SDS011;2227;47.810;8.810;2022-09-09T06:44:04;3.67;;;1.40;;
4428;SDS011;2227;47.810;8.810;2022-09-09T06:46:31;3.63;;;1.60;;
4428;SDS011;2227;47.810;8.810;2022-09-09T06:48:59;2.80;;;1.40;;
4428;SDS011;2227;47.810;8.810;2022-09-09T06:51:27;3.75;;;1.27;;
4428;SDS011;2227;47.810;8.810;2022-09-09T06:53:57;3.97;;;1.27;;
4428;SDS011;2227;47.810;8.810;2022-09-09T06:56:29;2.35;;;1.27;;
4428;SDS011;2227;47.810;8.810;2022-09-09T06:58:59;3.60;;;1.40;;
4428;SDS011;2227;47.810;8.810;2022-09-09T07:01:29;3.63;;;1.48;;
4428;SDS011;2227;47.810;8.810;2022-09-09T07:04:00;1.90;;;1.20;;
4428;SDS011;2227;47.810;8.810;2022-09-09T07:06:29;2.10;;;1.20;;
4428;SDS011;2227;47.810;8.810;2022-09-09T07:09:07;2.60;;;1.40;;
4428;SDS011;2227;47.810;8.810;2022-09-09T07:11:44;2.83;;;1.30;;
4428;SDS011;2227;47.810;8.810;2022-09-09T07:14:15;4.22;;;0.90;;
4428;SDS011;2227;47.810;8.810;2022-09-09T07:16:42;2.95;;;1.25;;
4428;SDS011;2227;47.810;8.810;2022-09-09T07:19:10;3.03;;;1.15;;
4428;SDS011;2227;47.810;8.810;2022-09-09T07:21:37;2.30;;;0.93;;
4428;SDS011;2227;47.810;8.810;2022-09-09T07:24:05;1.60;;;1.05;;
4428;SDS011;2227;47.810;8.810;2022-09-09T07:26:37;3.40;;;1.30;;
4428;SDS011;2227;47.810;8.810;2022-09-09T07:29:05;3.97;;;1.10;;
4428;SDS011;2227;47.810;8.810;2022-09-09T07:31:33;1.92;;;1.02;;
4428;SDS011;2227;47.810;8.810;2022-09-09T07:34:02;4.03;;;1.60;;
4428;SDS011;2227;47.810;8.810;2022-09-09T07:36:31;4.45;;;1.42;;
4428;SDS011;2227;47.810;8.810;2022-09-09T07:39:04;7.28;;;2.00;;
4428;SDS011;2227;47.810;8.810;2022-09-09T07:41:38;4.95;;;1.40;;
4428;SDS011;2227;47.810;8.810;2022-09-09T07:44:07;3.05;;;1.42;;
4428;SDS011;2227;47.810;8.810;2022-09-09T07:46:37;3.65;;;1.55;;
4428;SDS011;2227;47.810;8.810;2022-09-09T07:49:08;2.67;;;1.42;;
4428;SDS011;2227;47.810;8.810;2022-09-09T07:51:37;2.70;;;1.05;;
4428;SDS011;2227;47.810;8.810;2022-09-09T07:54:06;4.10;;;1.13;;
4428;SDS011;2227;47.810;8.810;2022-09-09T07:56:35;1.92;;;1.10;;
4428;SDS011;2227;47.810;8.810;2022-09-09T07:59:05;3.85;;;1.58;;
4428;SDS011;2227;47.810;8.810;2022-09-09T08:01:33;4.63;;;1.20;;
4428;SDS011;2227;47.810;8.810;2022-09-09T08:04:06;2.60;;;1.10;;
4428;SDS011;2227;47.810;8.810;2022-09-09T08:06:38;3.78;;;1.33;;
4428;SDS011;2227;47.810;8.810;2022-09-09T08:09:07;12.50;;;2.78;;
4428;SDS011;2227;47.810;8.810;2022-09-09T08:11:34;3.58;;;1.13;;
4428;SDS011;2227;47.810;8.810;2022-09-09T08:14:04;2.58;;;0.98;;
4428;SDS011;2227;47.810;8.810;2022-09-09T08:16:34;4.32;;;1.10;;
4428;SDS011;2227;47.810;8.810;2022-09-09T08:19:03;2.25;;;0.98;;
4428;SDS011;2227;47.810;8.810;2022-09-09T08:21:31;2.60;;;0.90;;
4428;SDS011;2227;47.810;8.810;2022-09-09T08:24:00;4.25;;;0.90;;
4428;SDS011;2227;47.810;8.810;2022-09-09T08:26:29;2.55;;;0.70;;
4428;SDS011;2227;47.810;8.810;2022-09-09T08:28:58;2.63;;;0.65;;
4428;SDS011;2227;47.810;8.810;2022-09-09T08:31:28;7.28;;;1.13;;
4428;SDS011;2227;47.810;8.810;2022-09-09T08:33:58;3.25;;;0.70;;
4428;SDS011;2227;47.810;8.810;2022-09-09T08:36:26;2.90;;;0.63;;
4428;SDS011;2227;47.810;8.810;2022-09-09T08:38:56;7.57;;;0.80;;
4428;SDS011;2227;47.810;8.810;2022-09-09T08:50:29;3.25;;;0.80;;
4428;SDS011;2227;47.810;8.810;2022-09-09T08:53:02;3.13;;;0.80;;
4428;SDS011;2227;47.810;8.810;2022-09-09T08:55:49;2.97;;;0.60;;
4428;SDS011;2227;47.810;8.810;2022-09-09T08:58:21;1.55;;;0.52;;
4428;SDS011;2227;47.810;8.810;2022-09-09T09:08:56;2.20;;;0.50;;
4428;SDS011;2227;47.810;8.810;2022-09-09T09:11:25;1.88;;;0.50;;
4428;SDS011;2227;47.810;8.810;2022-09-09T09:13:54;3.25;;;0.68;;
4428;SDS011;2227;47.810;8.810;2022-09-09T09:17:03;3.55;;;0.80;;
4428;SDS011;2227;47.810;8.810;2022-09-09T09:19:22;2.00;;;0.63;;
4428;SDS011;2227;47.810;8.810;2022-09-09T09:21:56;5.97;;;1.02;;
4428;SDS011;2227;47.810;8.810;2022-09-09T09:30:23;3.25;;;0.90;;
4428;SDS011;2227;47.810;8.810;2022-09-09T09:32:58;4.07;;;0.80;;
4428;SDS011;2227;47.810;8.810;2022-09-09T09:35:28;2.30;;;0.70;;
4428;SDS011;2227;47.810;8.810;2022-09-09T09:37:55;2.70;;;0.77;;
4428;SDS011;2227;47.810;8.810;2022-09-09T09:40:52;3.95;;;0.90;;
4428;SDS011;2227;47.810;8.810;2022-09-09T09:43:25;3.70;;;0.90;;
4428;SDS011;2227;47.810;8.810;2022-09-09T09:45:57;2.28;;;0.75;;
4428;SDS011;2227;47.810;8.810;2022-09-09T09:48:43;3.45;;;0.70;;
4428;SDS011;2227;47.810;8.810;2022-09-09T09:51:13;6.18;;;1.05;;
4428;SDS011;2227;47.810;8.810;2022-09-09T09:53:49;8.02;;;1.25;;
4428;SDS011;2227;47.810;8.810;2022-09-09T09:56:25;3.83;;;0.65;;
4428;SDS011;2227;47.810;8.810;2022-09-09T09:58:55;2.22;;;0.73;;
4428;SDS011;2227;47.810;8.810;2022-09-09T10:03:51;2.40;;;0.70;;
4428;SDS011;2227;47.810;8.810;2022-09-09T10:06:31;2.60;;;0.70;;
4428;SDS011;2227;47.810;8.810;2022-09-09T10:08:59;3.35;;;0.65;;
4428;SDS011;2227;47.810;8.810;2022-09-09T10:11:45;4.20;;;0.77;;
4428;SDS011;2227;47.810;8.810;2022-09-09T10:14:24;1.05;;;0.60;;
4428;SDS011;2227;47.810;8.810;2022-09-09T10:17:17;11.02;;;1.40;;
4428;SDS011;2227;47.810;8.810;2022-09-09T10:20:50;4.55;;;0.95;;
4428;SDS011;2227;47.810;8.810;2022-09-09T10:22:54;2.05;;;0.60;;
4428;SDS011;2227;47.810;8.810;2022-09-09T10:25:56;4.70;;;0.80;;
4428;SDS011;2227;47.810;8.810;2022-09-09T10:28:42;1.70;;;0.50;;
4428;SDS011;2227;47.810;8.810;2022-09-09T10:34:05;3.33;;;0.60;;
4428;SDS011;2227;47.810;8.810;2022-09-09T10:37:05;3.90;;;0.68;;
4428;SDS011;2227;47.810;8.810;2022-09-09T10:39:48;2.40;;;0.32;;
4428;SDS011;2227;47.810;8.810;2022-09-09T10:42:26;4.28;;;0.80;;
4428;SDS011;2227;47.810;8.810;2022-09-09T10:50:18;4.13;;;0.50;;
4428;SDS011;2227;47.810;8.810;2022-09-09T10:55:43;1.95;;;0.55;;
4428;SDS011;2227;47.810;8.810;2022-09-09T10:58:18;5.32;;;0.75;;
4428;SDS011;2227;47.810;8.810;2022-09-09T11:00:53;1.65;;;0.60;;
4428;SDS011;2227;47.810;8.810;2022-09-09T11:03:26;2.90;;;0.50;;
4428;SDS011;2227;47.810;8.810;2022-09-09T11:05:57;1.77;;;0.50;;
4428;SDS011;2227;47.810;8.810;2022-09-09T11:08:36;2.55;;;0.60;;
4428;SDS011;2227;47.810;8.810;2022-09-09T11:11:19;4.10;;;0.60;;
4428;SDS011;2227;47.810;8.810;2022-09-09T11:14:20;2.33;;;0.77;;
4428;SDS011;2227;47.810;8.810;2022-09-09T11:17:03;4.05;;;0.90;;
4428;SDS011;2227;47.810;8.810;2022-09-09T11:19:50;2.50;;;0.52;;
4428;SDS011;2227;47.810;8.810;2022-09-09T11:22:33;4.30;;;1.60;;
4428;SDS011;2227;47.810;8.810;2022-09-09T11:25:17;2.80;;;0.50;;
4428;SDS011;2227;47.810;8.810;2022-09-09T11:36:13;4.32;;;0.75;;
4428;SDS011;2227;47.810;8.810;2022-09-09T11:38:54;1.90;;;0.80;;
4428;SDS011;2227;47.810;8.810;2022-09-09T11:41:34;1.88;;;0.50;;
4428;SDS011;2227;47.810;8.810;2022-09-09T11:44:13;2.17;;;0.60;;
4428;SDS011;2227;47.810;8.810;2022-09-09T11:46:47;1.80;;;0.50;;
4428;SDS011;2227;47.810;8.810;2022-09-09T11:49:50;3.80;;;0.77;;
4428;SDS011;2227;47.810;8.810;2022-09-09T11:52:45;2.75;;;0.70;;
4428;SDS011;2227;47.810;8.810;2022-09-09T11:55:25;2.33;;;0.57;;
4428;SDS011;2227;47.810;8.810;2022-09-09T12:00:47;4.05;;;0.73;;
4428;SDS011;2227;47.810;8.810;2022-09-09T12:03:48;2.88;;;0.80;;
4428;SDS011;2227;47.810;8.810;2022-09-09T12:06:19;4.50;;;0.82;;
4428;SDS011;2227;47.810;8.810;2022-09-09T12:09:07;4.03;;;0.55;;
4428;SDS011;2227;47.810;8.810;2022-09-09T12:12:04;6.18;;;1.00;;
4428;SDS011;2227;47.810;8.810;2022-09-09T12:17:43;3.13;;;0.50;;
4428;SDS011;2227;47.810;8.810;2022-09-09T12:20:26;2.42;;;0.60;;
4428;SDS011;2227;47.810;8.810;2022-09-09T12:23:15;2.95;;;0.47;;
4428;SDS011;2227;47.810;8.810;2022-09-09T12:29:23;6.53;;;1.08;;
4428;SDS011;2227;47.810;8.810;2022-09-09T12:39:56;1.58;;;0.40;;
4428;SDS011;2227;47.810;8.810;2022-09-09T12:42:26;2.75;;;0.52;;
4428;SDS011;2227;47.810;8.810;2022-09-09T12:44:57;2.58;;;0.63;;
4428;SDS011;2227;47.810;8.810;2022-09-09T12:50:01;3.15;;;0.57;;
4428;SDS011;2227;47.810;8.810;2022-09-09T12:52:30;3.03;;;0.68;;
4428;SDS011;2227;47.810;8.810;2022-09-09T12:55:02;1.05;;;0.30;;
4428;SDS011;2227;47.810;8.810;2022-09-09T12:57:35;3.03;;;0.60;;
4428;SDS011;2227;47.810;8.810;2022-09-09T13:00:05;2.53;;;0.40;;
4428;SDS011;2227;47.810;8.810;2022-09-09T13:02:49;3.10;;;0.55;;
4428;SDS011;2227;47.810;8.810;2022-09-09T13:05:20;2.30;;;0.32;;
4428;SDS011;2227;47.810;8.810;2022-09-09T13:07:49;2.95;;;0.50;;
4428;SDS011;2227;47.810;8.810;2022-09-09T13:10:21;1.88;;;0.40;;
4428;SDS011;2227;47.810;8.810;2022-09-09T13:13:15;4.10;;;0.82;;
4428;SDS011;2227;47.810;8.810;2022-09-09T13:15:50;3.53;;;0.68;;
4428;SDS011;2227;47.810;8.810;2022-09-09T13:18:21;2.15;;;0.32;;
4428;SDS011;2227;47.810;8.810;2022-09-09T13:20:53;4.35;;;0.65;;
4428;SDS011;2227;47.810;8.810;2022-09-09T13:23:30;1.40;;;0.30;;
4428;SDS011;2227;47.810;8.810;2022-09-09T13:25:59;2.83;;;0.43;;
4428;SDS011;2227;47.810;8.810;2022-09-09T13:28:29;2.35;;;0.50;;
4428;SDS011;2227;47.810;8.810;2022-09-09T13:31:00;2.08;;;0.40;;
4428;SDS011;2227;47.810;8.810;2022-09-09T13:33:36;2.50;;;0.43;;
4428;SDS011;2227;47.810;8.810;2022-09-09T13:36:05;2.97;;;0.38;;
4428;SDS011;2227;47.810;8.810;2022-09-09T13:38:38;3.33;;;0.40;;
4428;SDS011;2227;47.810;8.810;2022-09-09T13:41:07;2.90;;;0.32;;
4428;SDS011;2227;47.810;8.810;2022-09-09T13:43:37;1.00;;;0.13;;
4428;SDS011;2227;47.810;8.810;2022-09-09T13:51:41;1.08;;;0.20;;
4428;SDS011;2227;47.810;8.810;2022-09-09T13:54:13;1.60;;;0.25;;
4428;SDS011;2227;47.810;8.810;2022-09-09T13:56:42;1.73;;;0.40;;
4428;SDS011;2227;47.810;8.810;2022-09-09T13:59:10;1.67;;;0.28;;
4428;SDS011;2227;47.810;8.810;2022-09-09T14:01:39;1.70;;;0.28;;
4428;SDS011;2227;47.810;8.810;2022-09-09T14:04:07;3.00;;;0.30;;
4428;SDS011;2227;47.810;8.810;2022-09-09T14:06:34;1.75;;;0.30;;
4428;SDS011;2227;47.810;8.810;2022-09-09T14:09:06;2.80;;;0.40;;
4428;SDS011;2227;47.810;8.810;2022-09-09T14:11:33;2.60;;;0.30;;
4428;SDS011;2227;47.810;8.810;2022-09-09T14:14:00;1.77;;;0.50;;
4428;SDS011;2227;47.810;8.810;2022-09-09T14:16:27;3.17;;;0.60;;
4428;SDS011;2227;47.810;8.810;2022-09-09T14:18:54;1.17;;;0.20;;
4428;SDS011;2227;47.810;8.810;2022-09-09T14:21:25;3.67;;;0.52;;
4428;SDS011;2227;47.810;8.810;2022-09-09T14:23:53;2.10;;;0.40;;
4428;SDS011;2227;47.810;8.810;2022-09-09T14:26:20;2.00;;;0.60;;
4428;SDS011;2227;47.810;8.810;2022-09-09T14:28:48;2.47;;;0.40;;
4428;SDS011;2227;47.810;8.810;2022-09-09T14:31:23;1.20;;;0.30;;
4428;SDS011;2227;47.810;8.810;2022-09-09T14:33:51;2.13;;;0.30;;
4428;SDS011;2227;47.810;8.810;2022-09-09T14:36:18;1.20;;;0.30;;
4428;SDS011;2227;47.810;8.810;2022-09-09T14:38:45;2.15;;;0.32;;
4428;SDS011;2227;47.810;8.810;2022-09-09T14:41:13;2.28;;;0.40;;
4428;SDS011;2227;47.810;8.810;2022-09-09T14:43:44;1.40;;;0.22;;
4428;SDS011;2227;47.810;8.810;2022-09-09T14:46:15;1.63;;;0.40;;
4428;SDS011;2227;47.810;8.810;2022-09-09T14:48:43;2.72;;;0.40;;
4428;SDS011;2227;47.810;8.810;2022-09-09T14:51:21;1.73;;;0.40;;
4428;SDS011;2227;47.810;8.810;2022-09-09T14:53:53;1.58;;;0.50;;
4428;SDS011;2227;47.810;8.810;2022-09-09T14:56:22;1.98;;;0.30;;
4428;SDS011;2227;47.810;8.810;2022-09-09T14:58:50;1.63;;;0.40;;
4428;SDS011;2227;47.810;8.810;2022-09-09T15:01:19;2.70;;;0.50;;
4428;SDS011;2227;47.810;8.810;2022-09-09T15:03:50;0.88;;;0.35;;
4428;SDS011;2227;47.810;8.810;2022-09-09T15:06:19;2.22;;;0.43;;
4428;SDS011;2227;47.810;8.810;2022-09-09T15:08:47;5.13;;;0.40;;
4428;SDS011;2227;47.810;8.810;2022-09-09T15:11:15;2.95;;;0.50;;
4428;SDS011;2227;47.810;8.810;2022-09-09T15:13:43;1.67;;;0.30;;
4428;SDS011;2227;47.810;8.810;2022-09-09T15:16:11;1.85;;;0.40;;
4428;SDS011;2227;47.810;8.810;2022-09-09T15:18:41;0.38;;;0.10;;
4428;SDS011;2227;47.810;8.810;2022-09-09T15:21:13;1.98;;;0.20;;
4428;SDS011;2227;47.810;8.810;2022-09-09T15:23:41;1.40;;;0.20;;
4428;SDS011;2227;47.810;8.810;2022-09-09T15:26:09;0.70;;;0.10;;
4428;SDS011;2227;47.810;8.810;2022-09-09T15:28:37;0.75;;;0.20;;
4428;SDS011;2227;47.810;8.810;2022-09-09T15:31:05;1.60;;;0.30;;
4428;SDS011;2227;47.810;8.810;2022-09-09T15:33:36;2.28;;;0.38;;
4428;SDS011;2227;47.810;8.810;2022-09-09T15:39:04;3.30;;;0.40;;
4428;SDS011;2227;47.810;8.810;2022-09-09T15:41:33;1.95;;;0.38;;
4428;SDS011;2227;47.810;8.810;2022-09-09T15:44:00;0.90;;;0.20;;
4428;SDS011;2227;47.810;8.810;2022-09-09T15:46:31;1.38;;;0.40;;
4428;SDS011;2227;47.810;8.810;2022-09-09T15:49:16;1.10;;;0.30;;
4428;SDS011;2227;47.810;8.810;2022-09-09T15:51:45;0.80;;;0.20;;
4428;SDS011;2227;47.810;8.810;2022-09-09T15:54:15;0.75;;;0.20;;
4428;SDS011;2227;47.810;8.810;2022-09-09T15:56:44;1.17;;;0.20;;
4428;SDS011;2227;47.810;8.810;2022-09-09T15:59:12;3.10;;;0.40;;
4428;SDS011;2227;47.810;8.810;2022-09-09T16:01:40;2.10;;;0.40;;
4428;SDS011;2227;47.810;8.810;2022-09-09T16:04:08;1.08;;;0.30;;
4428;SDS011;2227;47.810;8.810;2022-09-09T16:06:35;1.35;;;0.30;;
4428;SDS011;2227;47.810;8.810;2022-09-09T16:09:03;1.17;;;0.32;;
4428;SDS011;2227;47.810;8.810;2022-09-09T16:11:36;1.33;;;0.25;;
4428;SDS011;2227;47.810;8.810;2022-09-09T16:14:04;2.80;;;0.45;;
4428;SDS011;2227;47.810;8.810;2022-09-09T16:16:32;0.95;;;0.10;;
4428;SDS011;2227;47.810;8.810;2022-09-09T16:19:05;1.33;;;0.20;;
4428;SDS011;2227;47.810;8.810;2022-09-09T16:21:34;2.60;;;0.20;;
4428;SDS011;2227;47.810;8.810;2022-09-09T16:24:04;1.05;;;0.32;;
4428;SDS011;2227;47.810;8.810;2022-09-09T16:26:33;2.17;;;0.40;;
4428;SDS011;2227;47.810;8.810;2022-09-09T16:29:02;1.80;;;0.50;;
4428;SDS011;2227;47.810;8.810;2022-09-09T16:31:30;2.45;;;0.30;;
4428;SDS011;2227;47.810;8.810;2022-09-09T16:33:58;0.85;;;0.30;;
4428;SDS011;2227;47.810;8.810;2022-09-09T16:36:26;1.92;;;0.20;;
4428;SDS011;2227;47.810;8.810;2022-09-09T16:38:54;2.30;;;0.47;;
4428;SDS011;2227;47.810;8.810;2022-09-09T16:41:26;1.00;;;0.20;;
4428;SDS011;2227;47.810;8.810;2022-09-09T16:46:21;2.58;;;0.30;;
4428;SDS011;2227;47.810;8.810;2022-09-09T16:48:50;2.58;;;0.50;;
4428;SDS011;2227;47.810;8.810;2022-09-09T16:51:22;1.35;;;0.30;;
4428;SDS011;2227;47.810;8.810;2022-09-09T16:53:53;3.25;;;0.60;;
4428;SDS011;2227;47.810;8.810;2022-09-09T16:56:22;1.60;;;0.57;;
4428;SDS011;2227;47.810;8.810;2022-09-09T16:58:53;1.50;;;0.47;;
4428;SDS011;2227;47.810;8.810;2022-09-09T17:01:22;1.95;;;0.57;;
4428;SDS011;2227;47.810;8.810;2022-09-09T17:03:53;4.20;;;0.55;;
4428;SDS011;2227;47.810;8.810;2022-09-09T17:06:27;2.83;;;0.52;;
4428;SDS011;2227;47.810;8.810;2022-09-09T17:08:59;1.92;;;0.30;;
4428;SDS011;2227;47.810;8.810;2022-09-09T17:11:28;1.48;;;0.20;;
4428;SDS011;2227;47.810;8.810;2022-09-09T17:13:56;3.47;;;0.50;;
4428;SDS011;2227;47.810;8.810;2022-09-09T17:16:24;0.80;;;0.20;;
4428;SDS011;2227;47.810;8.810;2022-09-09T17:18:56;3.58;;;0.40;;
4428;SDS011;2227;47.810;8.810;2022-09-09T17:21:24;5.65;;;0.77;;
4428;SDS011;2227;47.810;8.810;2022-09-09T17:23:53;2.97;;;0.50;;
4428;SDS011;2227;47.810;8.810;2022-09-09T17:26:21;2.92;;;0.70;;
4428;SDS011;2227;47.810;8.810;2022-09-09T17:28:49;2.65;;;0.70;;
4428;SDS011;2227;47.810;8.810;2022-09-09T17:31:20;6.57;;;0.70;;
4428;SDS011;2227;47.810;8.810;2022-09-09T17:33:49;2.20;;;0.35;;
4428;SDS011;2227;47.810;8.810;2022-09-09T17:36:19;4.10;;;0.60;;
4428;SDS011;2227;47.810;8.810;2022-09-09T17:38:48;2.28;;;0.50;;
4428;SDS011;2227;47.810;8.810;2022-09-09T17:41:22;1.77;;;0.40;;
4428;SDS011;2227;47.810;8.810;2022-09-09T17:43:51;2.30;;;0.50;;
4428;SDS011;2227;47.810;8.810;2022-09-09T17:48:48;2.42;;;0.50;;
4428;SDS011;2227;47.810;8.810;2022-09-09T17:51:18;2.08;;;0.50;;
4428;SDS011;2227;47.810;8.810;2022-09-09T17:53:47;3.22;;;0.50;;
4428;SDS011;2227;47.810;8.810;2022-09-09T17:56:16;1.35;;;0.30;;
4428;SDS011;2227;47.810;8.810;2022-09-09T17:58:49;2.22;;;0.40;;
4428;SDS011;2227;47.810;8.810;2022-09-09T18:01:25;0.50;;;0.20;;
4428;SDS011;2227;47.810;8.810;2022-09-09T18:03:54;0.90;;;0.38;;
4428;SDS011;2227;47.810;8.810;2022-09-09T18:06:23;2.30;;;0.22;;
4428;SDS011;2227;47.810;8.810;2022-09-09T18:08:56;1.27;;;0.30;;
4428;SDS011;2227;47.810;8.810;2022-09-09T18:11:25;1.33;;;0.20;;
4428;SDS011;2227;47.810;8.810;2022-09-09T18:13:57;1.55;;;0.30;;
4428;SDS011;2227;47.810;8.810;2022-09-09T18:16:27;2.03;;;0.73;;
4428;SDS011;2227;47.810;8.810;2022-09-09T18:18:56;2.35;;;0.30;;
4428;SDS011;2227;47.810;8.810;2022-09-09T18:21:24;1.05;;;0.30;;
4428;SDS011;2227;47.810;8.810;2022-09-09T18:23:52;1.60;;;0.30;;
4428;SDS011;2227;47.810;8.810;2022-09-09T18:26:20;2.40;;;0.32;;
4428;SDS011;2227;47.810;8.810;2022-09-09T18:28:53;1.77;;;0.40;;
4428;SDS011;2227;47.810;8.810;2022-09-09T18:31:22;1.85;;;0.30;;
4428;SDS011;2227;47.810;8.810;2022-09-09T18:33:50;2.92;;;0.85;;
4428;SDS011;2227;47.810;8.810;2022-09-09T18:36:22;2.13;;;0.30;;
4428;SDS011;2227;47.810;8.810;2022-09-09T18:38:57;2.17;;;0.38;;
4428;SDS011;2227;47.810;8.810;2022-09-09T18:41:30;1.70;;;0.38;;
4428;SDS011;2227;47.810;8.810;2022-09-09T18:44:06;1.52;;;0.20;;
4428;SDS011;2227;47.810;8.810;2022-09-09T18:46:36;0.77;;;0.20;;
4428;SDS011;2227;47.810;8.810;2022-09-09T18:49:04;0.70;;;0.30;;
4428;SDS011;2227;47.810;8.810;2022-09-09T18:51:32;2.03;;;0.30;;
4428;SDS011;2227;47.810;8.810;2022-09-09T18:54:04;1.77;;;0.20;;
4428;SDS011;2227;47.810;8.810;2022-09-09T18:56:34;0.93;;;0.10;;
4428;SDS011;2227;47.810;8.810;2022-09-09T18:59:03;1.95;;;0.30;;
4428;SDS011;2227;47.810;8.810;2022-09-09T19:01:31;1.00;;;0.20;;
4428;SDS011;2227;47.810;8.810;2022-09-09T19:04:01;3.47;;;0.22;;
4428;SDS011;2227;47.810;8.810;2022-09-09T19:06:29;0.95;;;0.45;;
4428;SDS011;2227;47.810;8.810;2022-09-09T19:08:57;1.90;;;0.20;;
4428;SDS011;2227;47.810;8.810;2022-09-09T19:11:30;1.58;;;0.50;;
4428;SDS011;2227;47.810;8.810;2022-09-09T19:13:58;1.08;;;0.38;;
4428;SDS011;2227;47.810;8.810;2022-09-09T19:16:28;1.77;;;0.30;;
4428;SDS011;2227;47.810;8.810;2022-09-09T19:19:00;0.88;;;0.20;;
4428;SDS011;2227;47.810;8.810;2022-09-09T19:21:30;1.55;;;0.35;;
4428;SDS011;2227;47.810;8.810;2022-09-09T19:24:10;1.27;;;0.20;;
4428;SDS011;2227;47.810;8.810;2022-09-09T19:26:57;1.08;;;0.22;;
4428;SDS011;2227;47.810;8.810;2022-09-09T19:29:28;0.35;;;0.20;;
4428;SDS011;2227;47.810;8.810;2022-09-09T19:31:57;0.98;;;0.20;;
4428;SDS011;2227;47.810;8.810;2022-09-09T19:34:46;1.55;;;0.25;;
4428;SDS011;2227;47.810;8.810;2022-09-09T19:37:13;2.00;;;0.40;;
4428;SDS011;2227;47.810;8.810;2022-09-09T19:39:43;0.90;;;0.40;;
4428;SDS011;2227;47.810;8.810;2022-09-09T19:42:11;1.83;;;0.45;;
4428;SDS011;2227;47.810;8.810;2022-09-09T19:44:37;1.58;;;0.40;;
4428;SDS011;2227;47.810;8.810;2022-09-09T19:47:04;2.13;;;0.52;;
4428;SDS011;2227;47.810;8.810;2022-09-09T19:49:32;1.17;;;0.25;;
4428;SDS011;2227;47.810;8.810;2022-09-09T19:52:00;2.47;;;0.28;;
4428;SDS011;2227;47.810;8.810;2022-09-09T19:54:27;3.15;;;0.22;;
4428;SDS011;2227;47.810;8.810;2022-09-09T19:56:53;1.50;;;0.22;;
4428;SDS011;2227;47.810;8.810;2022-09-09T19:59:20;2.33;;;0.43;;
4428;SDS011;2227;47.810;8.810;2022-09-09T20:01:47;0.68;;;0.20;;
4428;SDS011;2227;47.810;8.810;2022-09-09T20:04:14;1.50;;;0.20;;
4428;SDS011;2227;47.810;8.810;2022-09-09T20:06:42;0.75;;;0.30;;
4428;SDS011;2227;47.810;8.810;2022-09-09T20:09:14;0.17;;;0.08;;
4428;SDS011;2227;47.810;8.810;2022-09-09T20:11:42;2.30;;;0.40;;
4428;SDS011;2227;47.810;8.810;2022-09-09T20:14:10;1.63;;;0.38;;
4428;SDS011;2227;47.810;8.810;2022-09-09T20:16:38;0.55;;;0.28;;
4428;SDS011;2227;47.810;8.810;2022-09-09T20:19:06;0.75;;;0.30;;
4428;SDS011;2227;47.810;8.810;2022-09-09T20:21:37;0.90;;;0.30;;
4428;SDS011;2227;47.810;8.810;2022-09-09T20:24:12;2.90;;;0.30;;
4428;SDS011;2227;47.810;8.810;2022-09-09T20:26:40;1.58;;;0.30;;
4428;SDS011;2227;47.810;8.810;2022-09-09T20:29:08;1.45;;;0.30;;
4428;SDS011;2227;47.810;8.810;2022-09-09T20:31:41;1.55;;;0.20;;
4428;SDS011;2227;47.810;8.810;2022-09-09T20:34:10;2.55;;;0.40;;
4428;SDS011;2227;47.810;8.810;2022-09-09T20:36:38;2.42;;;0.50;;
4428;SDS011;2227;47.810;8.810;2022-09-09T20:39:16;3.35;;;0.60;;
4428;SDS011;2227;47.810;8.810;2022-09-09T20:41:47;0.85;;;0.20;;
4428;SDS011;2227;47.810;8.810;2022-09-09T20:44:16;0.82;;;0.28;;
4428;SDS011;2227;47.810;8.810;2022-09-09T20:46:46;2.22;;;0.40;;
4428;SDS011;2227;47.810;8.810;2022-09-09T20:49:18;1.75;;;0.40;;
4428;SDS011;2227;47.810;8.810;2022-09-09T20:51:47;1.27;;;0.40;;
4428;SDS011;2227;47.810;8.810;2022-09-09T20:54:16;1.58;;;0.40;;